createdAt,value
2019-03-29T00:00:30.463Z,80.54
2019-03-29T00:03:01.982Z,80.71
2019-03-29T00:05:33.268Z,80.51
2019-03-29T00:08:04.258Z,80.96
2019-03-29T00:10:35.626Z,81.05
2019-03-29T00:13:06.618Z,80.51
2019-03-29T00:15:37.611Z,79.94
2019-03-29T00:18:09.998Z,80.14
2019-03-29T00:20:41.107Z,80.55
2019-03-29T00:23:12.118Z,80.70
2019-03-29T00:25:43.108Z,80.86
2019-03-29T00:28:14.399Z,80.82
2019-03-29T00:30:45.374Z,81.07
2019-03-29T00:33:16.741Z,80.95
2019-03-29T00:35:47.954Z,80.93
2019-03-29T00:38:19.255Z,80.78
2019-03-29T00:40:50.286Z,80.87
2019-03-29T00:43:21.295Z,80.76
2019-03-29T00:45:52.250Z,80.87
2019-03-29T00:48:24.057Z,80.89
2019-03-29T00:50:55.063Z,81.06
2019-03-29T00:53:26.764Z,81.33
2019-03-29T00:55:57.767Z,81.19
2019-03-29T00:58:28.785Z,81.06
2019-03-29T01:01:00.303Z,81.08
2019-03-29T01:03:31.271Z,81.25
2019-03-29T01:06:02.256Z,81.45
2019-03-29T01:08:33.291Z,81.62
2019-03-29T01:11:04.669Z,81.53
2019-03-29T01:13:35.649Z,81.42
2019-03-29T01:16:06.772Z,81.70
2019-03-29T01:18:38.034Z,82.18
2019-03-29T01:21:09.560Z,81.82
2019-03-29T01:23:40.563Z,81.92
2019-03-29T01:26:11.550Z,81.95
2019-03-29T01:28:42.567Z,81.80
2019-03-29T01:31:14.440Z,81.69
2019-03-29T01:33:45.801Z,81.83
2019-03-29T01:36:17.784Z,81.96
2019-03-29T01:38:49.121Z,82.14
2019-03-29T01:41:20.607Z,82.39
2019-03-29T01:43:51.614Z,82.40
2019-03-29T01:46:22.598Z,82.38
2019-03-29T01:48:53.627Z,82.51
2019-03-29T01:51:24.960Z,82.60
2019-03-29T01:53:56.297Z,82.77
2019-03-29T01:56:27.345Z,82.84
2019-03-29T01:58:58.693Z,83.00
2019-03-29T02:01:29.684Z,82.97
2019-03-29T02:04:00.705Z,83.24
2019-03-29T02:06:31.686Z,83.42
2019-03-29T02:09:02.810Z,83.36
2019-03-29T02:11:33.886Z,83.20
2019-03-29T02:14:04.929Z,83.14
2019-03-29T02:16:35.942Z,83.02
2019-03-29T02:19:06.950Z,83.53
2019-03-29T02:21:38.063Z,83.52
2019-03-29T02:24:09.081Z,83.75
2019-03-29T02:26:40.179Z,83.73
2019-03-29T02:29:11.291Z,84.30
2019-03-29T02:31:42.848Z,84.31
2019-03-29T02:34:15.791Z,84.31
2019-03-29T02:36:48.145Z,84.11
2019-03-29T02:39:19.492Z,83.94
2019-03-29T02:41:51.529Z,84.23
2019-03-29T02:44:22.522Z,84.25
2019-03-29T02:46:54.210Z,84.46
2019-03-29T02:49:25.483Z,84.61
2019-03-29T02:51:57.754Z,84.46
2019-03-29T02:54:28.744Z,84.42
2019-03-29T02:57:00.017Z,85.24
2019-03-29T02:59:31.109Z,84.90
2019-03-29T03:02:02.111Z,84.89
2019-03-29T03:04:33.281Z,84.99
2019-03-29T03:07:04.633Z,84.99
2019-03-29T03:09:35.654Z,84.86
2019-03-29T03:12:08.308Z,84.93
2019-03-29T03:14:39.498Z,84.76
2019-03-29T03:17:10.545Z,84.74
2019-03-29T03:19:41.971Z,84.77
2019-03-29T03:22:13.758Z,84.74
2019-03-29T03:24:45.041Z,84.45
2019-03-29T03:27:16.095Z,84.55
2019-03-29T03:29:48.852Z,85.15
2019-03-29T03:32:19.905Z,84.86
2019-03-29T03:34:50.967Z,84.86
2019-03-29T03:37:21.990Z,84.86
2019-03-29T03:39:53.615Z,85.13
2019-03-29T03:42:24.901Z,84.74
2019-03-29T03:44:55.935Z,84.80
2019-03-29T03:47:26.975Z,85.27
2019-03-29T03:50:01.012Z,85.75
2019-03-29T03:52:31.492Z,84.90
2019-03-29T03:55:05.193Z,84.86
2019-03-29T03:57:38.971Z,84.86
2019-03-29T04:00:10.617Z,85.03
2019-03-29T04:02:42.006Z,85.18
2019-03-29T04:05:13.368Z,85.29
2019-03-29T04:07:44.339Z,85.26
2019-03-29T04:10:15.378Z,86.07
2019-03-29T04:12:46.366Z,85.71
2019-03-29T04:15:17.417Z,85.50
2019-03-29T04:17:48.434Z,85.50
2019-03-29T04:20:19.446Z,85.31
2019-03-29T04:22:50.433Z,85.37
2019-03-29T04:25:21.447Z,85.37
2019-03-29T04:27:52.846Z,85.38
2019-03-29T04:30:23.891Z,85.85
2019-03-29T04:32:54.878Z,85.65
2019-03-29T04:35:26.322Z,85.46
2019-03-29T04:37:57.349Z,85.93
2019-03-29T04:40:28.334Z,86.31
2019-03-29T04:43:00.392Z,85.98
2019-03-29T04:45:31.448Z,86.04
2019-03-29T04:48:02.447Z,86.26
2019-03-29T04:50:33.839Z,86.51
2019-03-29T04:53:05.838Z,86.66
2019-03-29T04:55:36.831Z,86.33
2019-03-29T04:58:07.954Z,86.98
2019-03-29T05:00:38.969Z,86.79
2019-03-29T05:03:10.283Z,86.61
2019-03-29T05:05:41.296Z,86.42
2019-03-29T05:08:12.666Z,86.34
2019-03-29T05:10:43.696Z,86.47
2019-03-29T05:13:14.675Z,86.51
2019-03-29T05:15:45.999Z,86.28
2019-03-29T05:18:17.454Z,86.53
2019-03-29T05:20:48.604Z,86.71
2019-03-29T05:23:19.597Z,86.85
2019-03-29T05:25:50.997Z,87.04
2019-03-29T05:28:22.350Z,87.01
2019-03-29T05:30:53.797Z,87.44
2019-03-29T05:33:25.149Z,87.23
2019-03-29T05:35:56.624Z,87.12
2019-03-29T05:38:28.590Z,87.66
2019-03-29T05:40:59.576Z,87.78
2019-03-29T05:43:30.585Z,87.52
2019-03-29T05:46:01.568Z,87.90
2019-03-29T05:48:32.577Z,88.04
2019-03-29T05:51:03.643Z,87.73
2019-03-29T05:53:35.282Z,87.74
2019-03-29T05:56:06.699Z,87.84
2019-03-29T05:58:37.703Z,87.62
2019-03-29T06:01:08.705Z,87.56
2019-03-29T06:03:39.692Z,87.58
2019-03-29T06:06:10.753Z,87.73
2019-03-29T06:08:41.733Z,87.65
2019-03-29T06:11:12.767Z,87.50
2019-03-29T06:13:43.755Z,87.09
2019-03-29T06:16:14.740Z,86.86
2019-03-29T06:18:45.750Z,86.31
2019-03-29T06:21:16.740Z,86.26
2019-03-29T06:23:47.750Z,86.30
2019-03-29T06:26:19.119Z,85.73
2019-03-29T06:28:51.551Z,86.00
2019-03-29T06:31:22.662Z,85.76
2019-03-29T06:33:53.645Z,85.69
2019-03-29T06:36:26.497Z,83.99
2019-03-29T06:38:58.491Z,83.62
2019-03-29T06:41:30.230Z,82.23
2019-03-29T06:44:01.337Z,82.05
2019-03-29T06:46:32.727Z,82.11
2019-03-29T06:49:04.034Z,82.47
2019-03-29T06:51:35.054Z,82.94
2019-03-29T06:54:06.104Z,82.95
2019-03-29T06:56:37.627Z,83.22
2019-03-29T06:59:08.643Z,82.44
2019-03-29T07:01:39.662Z,81.79
2019-03-29T07:04:11.158Z,81.77
2019-03-29T07:06:45.120Z,82.61
2019-03-29T07:09:16.106Z,82.62
2019-03-29T07:11:47.743Z,81.66
2019-03-29T07:14:20.103Z,81.34
2019-03-29T07:16:51.555Z,81.11
2019-03-29T07:19:22.547Z,80.52
2019-03-29T07:21:53.588Z,78.24
2019-03-29T07:24:24.998Z,76.73
2019-03-29T07:26:55.991Z,78.03
2019-03-29T07:29:26.989Z,77.15
2019-03-29T07:31:58.739Z,76.92
2019-03-29T07:34:29.731Z,76.63
2019-03-29T07:37:01.139Z,75.75
2019-03-29T07:39:32.507Z,75.03
2019-03-29T07:42:03.500Z,73.82
2019-03-29T07:44:34.541Z,74.43
2019-03-29T07:47:05.535Z,74.97
2019-03-29T07:49:36.523Z,74.33
2019-03-29T07:52:07.545Z,73.70
2019-03-29T07:54:38.543Z,73.59
2019-03-29T07:57:09.584Z,74.04
2019-03-29T07:59:40.604Z,73.49
2019-03-29T08:02:11.640Z,72.58
2019-03-29T08:04:42.633Z,73.49
2019-03-29T08:07:26.653Z,73.77
2019-03-29T08:09:47.160Z,73.89
2019-03-29T08:12:18.183Z,73.44
2019-03-29T08:14:49.187Z,72.23
2019-03-29T08:17:20.180Z,72.35
2019-03-29T08:20:12.995Z,72.48
2019-03-29T08:22:24.295Z,71.38
2019-03-29T08:24:59.080Z,69.78
2019-03-29T08:27:28.367Z,70.38
2019-03-29T08:29:59.400Z,69.50
2019-03-29T08:32:30.390Z,68.97
2019-03-29T08:35:01.400Z,67.20
2019-03-29T08:37:32.428Z,68.13
2019-03-29T08:40:03.779Z,67.44
2019-03-29T08:42:34.775Z,66.81
2019-03-29T08:45:06.679Z,65.96
2019-03-29T08:47:37.675Z,65.33
2019-03-29T08:50:09.724Z,65.24
2019-03-29T08:52:41.362Z,65.21
2019-03-29T08:55:12.352Z,65.51
2019-03-29T08:57:43.822Z,64.94
2019-03-29T09:00:17.373Z,64.49
2019-03-29T09:02:48.669Z,63.21
2019-03-29T09:05:19.665Z,61.85
2019-03-29T09:07:50.876Z,63.48
2019-03-29T09:10:26.310Z,61.56
2019-03-29T09:12:57.350Z,61.58
2019-03-29T09:15:28.759Z,62.28
2019-03-29T09:18:00.278Z,62.19
2019-03-29T09:20:34.283Z,63.42
2019-03-29T09:23:04.299Z,62.16
2019-03-29T09:25:35.953Z,62.82
2019-03-29T09:28:06.954Z,61.06
2019-03-29T09:30:38.079Z,60.69
2019-03-29T09:33:09.164Z,61.18
2019-03-29T09:35:42.801Z,60.10
2019-03-29T09:38:13.648Z,59.16
2019-03-29T09:40:53.523Z,58.42
2019-03-29T09:43:17.360Z,58.78
2019-03-29T09:45:48.467Z,57.20
2019-03-29T09:48:19.637Z,60.01
2019-03-29T09:50:51.172Z,57.99
2019-03-29T09:53:22.200Z,59.00
2019-03-29T09:55:53.833Z,58.47
2019-03-29T09:58:24.852Z,58.63
2019-03-29T10:00:56.328Z,59.64
2019-03-29T10:03:27.695Z,58.92
2019-03-29T10:05:58.779Z,59.38
2019-03-29T10:08:29.795Z,57.64
2019-03-29T10:11:01.135Z,58.44
2019-03-29T10:13:32.179Z,56.90
2019-03-29T10:16:03.435Z,59.30
2019-03-29T10:18:34.452Z,57.55
2019-03-29T10:21:05.448Z,54.74
2019-03-29T10:23:36.959Z,58.11
2019-03-29T10:26:07.965Z,55.85
2019-03-29T10:28:39.110Z,56.17
2019-03-29T10:31:10.150Z,54.42
2019-03-29T10:33:41.147Z,56.97
2019-03-29T10:36:12.147Z,54.17
2019-03-29T10:38:43.722Z,55.88
2019-03-29T10:41:15.227Z,55.06
2019-03-29T10:43:46.701Z,56.29
2019-03-29T10:46:17.726Z,56.40
2019-03-29T10:48:48.790Z,56.28
2019-03-29T10:51:20.310Z,57.06
2019-03-29T10:53:51.306Z,57.57
2019-03-29T10:56:33.208Z,55.40
2019-03-29T10:58:55.131Z,55.62
2019-03-29T11:01:26.308Z,53.33
2019-03-29T11:03:57.296Z,53.40
2019-03-29T11:06:28.359Z,55.02
2019-03-29T11:08:59.755Z,53.51
2019-03-29T11:11:30.762Z,55.12
2019-03-29T11:14:01.788Z,52.64
2019-03-29T11:16:32.792Z,51.41
2019-03-29T11:19:04.351Z,49.77
2019-03-29T11:21:35.375Z,53.11
2019-03-29T11:24:09.196Z,51.19
2019-03-29T11:26:39.427Z,50.24
2019-03-29T11:29:10.419Z,50.37
2019-03-29T11:31:41.416Z,51.17
2019-03-29T11:34:12.865Z,50.43
2019-03-29T11:36:44.164Z,51.14
2019-03-29T11:39:15.633Z,50.85
2019-03-29T11:41:46.974Z,52.51
2019-03-29T11:44:17.963Z,51.64
2019-03-29T11:46:48.955Z,51.98
2019-03-29T11:49:19.990Z,51.96
2019-03-29T11:51:51.351Z,48.88
2019-03-29T11:54:22.348Z,50.02
2019-03-29T11:56:53.806Z,50.62
2019-03-29T11:59:24.844Z,51.39
2019-03-29T12:01:55.889Z,47.80
2019-03-29T12:04:26.980Z,50.70
2019-03-29T12:06:58.421Z,49.39
2019-03-29T12:09:29.818Z,48.51
2019-03-29T12:12:00.905Z,48.56
2019-03-29T12:14:31.935Z,49.52
2019-03-29T12:17:02.921Z,48.46
2019-03-29T12:19:33.913Z,49.46
2019-03-29T12:22:05.070Z,48.22
2019-03-29T12:24:36.454Z,47.49
2019-03-29T12:27:07.803Z,46.50
2019-03-29T12:29:38.802Z,47.67
2019-03-29T12:32:09.841Z,50.04
2019-03-29T12:34:41.145Z,48.29
2019-03-29T12:37:12.133Z,48.29
2019-03-29T12:39:43.176Z,48.69
2019-03-29T12:42:14.668Z,49.07
2019-03-29T12:44:45.657Z,46.44
2019-03-29T12:47:17.081Z,46.38
2019-03-29T12:49:48.083Z,45.46
2019-03-29T12:52:19.471Z,45.92
2019-03-29T12:54:50.540Z,44.63
2019-03-29T12:57:21.978Z,45.04
2019-03-29T12:59:52.962Z,48.06
2019-03-29T13:02:23.951Z,47.63
2019-03-29T13:04:55.653Z,47.65
2019-03-29T13:07:27.067Z,45.68
2019-03-29T13:09:58.125Z,45.78
2019-03-29T13:12:29.555Z,45.34
2019-03-29T13:15:00.913Z,47.83
2019-03-29T13:17:32.090Z,48.88
2019-03-29T13:20:03.731Z,46.21
2019-03-29T13:22:35.132Z,46.89
2019-03-29T13:25:07.574Z,45.98
2019-03-29T13:27:39.779Z,44.80
2019-03-29T13:30:12.424Z,46.52
2019-03-29T13:32:43.565Z,45.73
2019-03-29T13:35:14.705Z,45.09
2019-03-29T13:37:47.013Z,44.56
2019-03-29T13:40:21.074Z,44.06
2019-03-29T13:42:50.839Z,43.08
2019-03-29T13:45:22.117Z,42.73
2019-03-29T13:47:53.323Z,44.73
2019-03-29T13:50:24.669Z,46.79
2019-03-29T13:52:56.172Z,47.33
2019-03-29T13:55:27.163Z,46.76
2019-03-29T13:57:58.195Z,46.53
2019-03-29T14:00:29.796Z,44.60
2019-03-29T14:03:00.793Z,45.88
2019-03-29T14:05:32.668Z,44.63
2019-03-29T14:08:03.718Z,44.39
2019-03-29T14:10:35.645Z,42.83
2019-03-29T14:13:07.049Z,45.46
2019-03-29T14:15:38.038Z,45.18
2019-03-29T14:18:09.388Z,45.96
2019-03-29T14:20:40.431Z,44.48
2019-03-29T14:23:11.438Z,43.62
2019-03-29T14:25:42.434Z,42.51
2019-03-29T14:28:13.463Z,43.13
2019-03-29T14:30:44.462Z,43.68
2019-03-29T14:33:15.474Z,44.99
2019-03-29T14:35:46.463Z,45.40
2019-03-29T14:38:17.520Z,43.70
2019-03-29T14:40:48.557Z,47.41
2019-03-29T14:43:19.542Z,47.25
2019-03-29T14:45:51.019Z,46.88
2019-03-29T14:48:22.321Z,48.20
2019-03-29T14:50:53.775Z,46.64
2019-03-29T14:53:24.794Z,47.47
2019-03-29T14:55:55.834Z,48.79
2019-03-29T14:58:26.822Z,49.33
2019-03-29T15:00:57.896Z,47.99
2019-03-29T15:03:30.021Z,51.54
2019-03-29T15:06:03.468Z,47.58
2019-03-29T15:08:34.509Z,51.55
2019-03-29T15:11:05.870Z,51.81
2019-03-29T15:13:36.907Z,51.54
2019-03-29T15:16:08.235Z,48.30
2019-03-29T15:18:39.255Z,49.36
2019-03-29T15:21:10.658Z,49.81
2019-03-29T15:23:42.156Z,51.81
2019-03-29T15:26:14.093Z,48.58
2019-03-29T15:28:45.147Z,49.51
2019-03-29T15:31:16.552Z,50.75
2019-03-29T15:33:47.540Z,49.26
2019-03-29T15:36:18.966Z,49.67
2019-03-29T15:38:49.957Z,53.27
2019-03-29T15:41:20.970Z,51.69
2019-03-29T15:43:52.009Z,50.30
2019-03-29T15:46:23.391Z,52.36
2019-03-29T15:48:54.770Z,51.04
2019-03-29T15:51:25.814Z,51.04
2019-03-29T15:53:56.811Z,50.29
2019-03-29T15:56:28.178Z,50.67
2019-03-29T15:58:59.245Z,51.38
2019-03-29T16:01:30.521Z,51.38
2019-03-29T16:04:01.575Z,52.73
2019-03-29T16:06:32.626Z,50.90
2019-03-29T16:09:04.457Z,52.31
2019-03-29T16:11:35.876Z,50.33
2019-03-29T16:14:06.919Z,53.14
2019-03-29T16:16:37.920Z,51.97
2019-03-29T16:19:08.910Z,51.97
2019-03-29T16:21:39.943Z,52.26
2019-03-29T16:24:12.010Z,51.48
2019-03-29T16:26:43.018Z,51.82
2019-03-29T16:29:14.006Z,51.97
2019-03-29T16:31:46.249Z,51.97
2019-03-29T16:34:17.275Z,51.97
2019-03-29T16:36:48.266Z,52.35
2019-03-29T16:39:19.311Z,53.78
2019-03-29T16:41:50.693Z,52.11
2019-03-29T16:44:22.567Z,51.96
2019-03-29T16:46:53.585Z,51.69
2019-03-29T16:49:27.201Z,52.43
2019-03-29T16:51:58.571Z,52.37
2019-03-29T16:54:29.561Z,52.68
2019-03-29T16:57:00.711Z,53.27
2019-03-29T16:59:32.078Z,52.82
2019-03-29T17:02:03.075Z,52.02
2019-03-29T17:04:34.445Z,52.35
2019-03-29T17:07:05.436Z,53.56
2019-03-29T17:09:36.571Z,53.64
2019-03-29T17:12:07.622Z,53.98
2019-03-29T17:14:38.623Z,54.57
2019-03-29T17:17:09.623Z,54.78
2019-03-29T17:19:40.671Z,54.83
2019-03-29T17:22:11.675Z,55.17
2019-03-29T17:24:56.094Z,55.49
2019-03-29T17:27:15.398Z,55.81
2019-03-29T17:29:46.455Z,56.74
2019-03-29T17:32:17.463Z,57.40
2019-03-29T17:34:48.471Z,57.99
2019-03-29T17:37:19.523Z,58.56
2019-03-29T17:39:50.535Z,58.74
2019-03-29T17:42:21.527Z,59.19
2019-03-29T17:44:53.072Z,59.50
2019-03-29T17:47:24.180Z,59.56
2019-03-29T17:49:55.359Z,60.08
2019-03-29T17:52:26.366Z,60.64
2019-03-29T17:54:57.362Z,60.98
2019-03-29T17:57:28.356Z,60.98
2019-03-29T17:59:59.388Z,61.37
2019-03-29T18:02:30.811Z,61.70
2019-03-29T18:05:01.841Z,62.15
2019-03-29T18:07:33.307Z,61.93
2019-03-29T18:10:04.592Z,62.16
2019-03-29T18:12:35.631Z,61.95
2019-03-29T18:15:07.986Z,62.30
2019-03-29T18:17:39.588Z,62.78
2019-03-29T18:20:11.064Z,62.88
2019-03-29T18:22:42.467Z,63.03
2019-03-29T18:25:13.645Z,63.08
2019-03-29T18:27:44.828Z,63.23
2019-03-29T18:30:16.383Z,63.35
2019-03-29T18:32:47.436Z,63.58
2019-03-29T18:35:18.443Z,63.71
2019-03-29T18:37:49.672Z,64.13
2019-03-29T18:40:26.728Z,63.79
2019-03-29T18:42:58.212Z,63.80
2019-03-29T18:45:29.217Z,64.00
2019-03-29T18:48:00.524Z,63.97
2019-03-29T18:50:31.536Z,63.98
2019-03-29T18:53:02.537Z,64.38
2019-03-29T18:55:33.578Z,64.81
2019-03-29T18:58:06.033Z,64.84
2019-03-29T19:00:38.527Z,65.30
2019-03-29T19:03:11.818Z,65.47
2019-03-29T19:05:42.328Z,65.96
2019-03-29T19:08:13.370Z,65.53
2019-03-29T19:10:44.374Z,66.00
2019-03-29T19:13:15.775Z,65.99
2019-03-29T19:15:47.092Z,65.65
2019-03-29T19:18:18.543Z,66.04
2019-03-29T19:20:49.558Z,66.27
2019-03-29T19:23:23.088Z,66.21
2019-03-29T19:25:55.599Z,66.29
2019-03-29T19:28:28.784Z,66.48
2019-03-29T19:30:59.959Z,66.61
2019-03-29T19:33:31.511Z,66.49
2019-03-29T19:36:02.547Z,66.25
2019-03-29T19:38:33.571Z,66.32
2019-03-29T19:41:04.601Z,66.70
2019-03-29T19:43:36.258Z,67.31
2019-03-29T19:46:08.229Z,68.41
2019-03-29T19:48:39.614Z,67.75
2019-03-29T19:51:30.705Z,68.02
2019-03-29T19:54:07.648Z,67.99
2019-03-29T19:56:35.503Z,68.40
2019-03-29T19:59:06.807Z,67.98
2019-03-29T20:01:37.796Z,68.09
2019-03-29T20:04:09.897Z,68.15
2019-03-29T20:06:42.313Z,68.15
2019-03-29T20:09:15.655Z,68.19
2019-03-29T20:11:46.641Z,68.73
2019-03-29T20:14:17.658Z,68.98
2019-03-29T20:16:48.674Z,68.68
2019-03-29T20:19:23.774Z,68.41
2019-03-29T20:21:54.859Z,68.68
2019-03-29T20:24:25.861Z,68.76
2019-03-29T20:26:57.611Z,69.00
2019-03-29T20:29:29.046Z,68.89
2019-03-29T20:32:00.055Z,69.54
2019-03-29T20:34:31.084Z,69.50
2019-03-29T20:37:02.076Z,69.47
2019-03-29T20:39:33.132Z,69.46
2019-03-29T20:42:05.590Z,69.42
2019-03-29T20:44:36.593Z,69.35
2019-03-29T20:47:08.007Z,69.58
2019-03-29T20:49:39.025Z,69.87
2019-03-29T20:52:10.118Z,70.00
2019-03-29T20:54:41.162Z,70.19
2019-03-29T20:57:12.155Z,70.07
2019-03-29T20:59:43.219Z,70.47
2019-03-29T21:02:14.228Z,70.31
2019-03-29T21:04:45.657Z,70.02
2019-03-29T21:07:18.527Z,69.77
2019-03-29T21:09:49.966Z,70.40
2019-03-29T21:12:20.960Z,70.12
2019-03-29T21:14:52.032Z,70.27
2019-03-29T21:17:23.276Z,70.23
2019-03-29T21:19:54.639Z,70.46
2019-03-29T21:22:25.622Z,70.80
2019-03-29T21:24:56.646Z,70.76
2019-03-29T21:27:27.648Z,70.59
2019-03-29T21:29:58.677Z,70.62
2019-03-29T21:32:29.682Z,71.06
2019-03-29T21:35:01.420Z,71.03
2019-03-29T21:37:34.107Z,70.97
2019-03-29T21:40:05.895Z,71.03
2019-03-29T21:42:36.901Z,71.24
2019-03-29T21:45:10.376Z,70.50
2019-03-29T21:47:41.765Z,70.69
2019-03-29T21:50:13.079Z,70.96
2019-03-29T21:52:44.126Z,70.66
2019-03-29T21:55:15.422Z,70.91
2019-03-29T21:57:46.426Z,70.59
2019-03-29T22:00:18.924Z,70.95
2019-03-29T22:02:49.914Z,71.18
2019-03-29T22:05:20.955Z,71.24
2019-03-29T22:07:52.359Z,71.20
2019-03-29T22:10:24.099Z,71.17
2019-03-29T22:12:55.099Z,70.66
2019-03-29T22:15:26.147Z,70.64
2019-03-29T22:17:57.148Z,71.08
2019-03-29T22:20:28.199Z,70.70
2019-03-29T22:22:59.183Z,70.90
2019-03-29T22:25:30.174Z,70.71
2019-03-29T22:28:01.220Z,70.56
2019-03-29T22:30:32.571Z,70.74
2019-03-29T22:33:04.046Z,70.79
2019-03-29T22:35:35.285Z,70.68
2019-03-29T22:38:06.746Z,70.92
2019-03-29T22:40:37.730Z,71.12
2019-03-29T22:43:08.771Z,71.10
2019-03-29T22:45:39.778Z,71.08
2019-03-29T22:48:10.755Z,71.29
2019-03-29T22:50:41.795Z,71.52
2019-03-29T22:53:12.785Z,71.45
2019-03-29T22:55:43.775Z,71.44
2019-03-29T22:58:14.792Z,71.81
2019-03-29T23:00:49.735Z,71.66
2019-03-29T23:03:20.851Z,71.63
2019-03-29T23:05:51.915Z,71.55
2019-03-29T23:08:23.390Z,71.50
2019-03-29T23:10:54.731Z,71.92
2019-03-29T23:13:25.810Z,72.15
2019-03-29T23:15:56.800Z,71.99
2019-03-29T23:18:27.839Z,72.06
2019-03-29T23:20:59.594Z,72.15
2019-03-29T23:23:30.631Z,72.18
2019-03-29T23:26:01.631Z,72.24
2019-03-29T23:28:32.616Z,72.40
2019-03-29T23:31:05.550Z,72.40
2019-03-29T23:33:36.804Z,72.43
2019-03-29T23:36:07.791Z,72.55
2019-03-29T23:38:38.822Z,72.71
2019-03-29T23:41:09.803Z,72.69
2019-03-29T23:43:41.130Z,72.71
2019-03-29T23:46:12.157Z,72.72
2019-03-29T23:48:43.908Z,73.04
2019-03-29T23:51:14.894Z,73.01
2019-03-29T23:53:45.896Z,72.84
2019-03-29T23:56:16.922Z,72.93
2019-03-29T23:58:48.260Z,73.42
